Time;durP1;ratioP1;P1;durP2;ratioP2;P2;SDS_P1;SDS_P2;PMS_P1;PMS_P2;Temp;Humidity;BMP_temperature;BMP_pressure;BME280_temperature;BME280_humidity;BME280_pressure;Samples;Min_cycle;Max_cycle;Signal;HPM_P1;HPM_P2
2022/07/23 00:00:16;;;;;;;0.20;0.00;;;25.40;99.90;;;;;;25688810;23;20371;-70
2022/07/23 00:10:20;;;;;;;0.20;0.00;;;26.00;99.90;;;;;;25688683;23;20205;-70
2022/07/23 00:20:25;;;;;;;0.20;0.00;;;25.70;99.90;;;;;;25661989;23;20182;-70
2022/07/23 00:30:30;;;;;;;0.20;0.00;;;25.50;99.90;;;;;;25688254;23;20210;-70
2022/07/23 00:40:35;;;;;;;0.20;0.00;;;25.60;99.90;;;;;;25688674;23;20233;-70
2022/07/23 00:50:39;;;;;;;0.20;0.00;;;25.40;99.90;;;;;;25688454;23;20216;-70
2022/07/23 01:00:44;;;;;;;0.20;0.00;;;24.70;99.90;;;;;;25687177;23;20213;-69
2022/07/23 01:10:50;;;;;;;0.20;0.00;;;24.50;99.90;;;;;;25687030;23;20186;-69
2022/07/23 01:20:55;;;;;;;0.20;0.00;;;24.40;99.90;;;;;;25686713;23;20166;-70
2022/07/23 01:31:00;;;;;;;0.20;0.00;;;24.40;99.90;;;;;;25687123;23;20268;-71
2022/07/23 01:41:04;;;;;;;0.20;0.00;;;24.30;99.90;;;;;;25660376;23;20230;-71
2022/07/23 01:51:10;;;;;;;0.20;0.00;;;24.50;99.90;;;;;;25686045;23;20197;-70
2022/07/23 02:01:14;;;;;;;0.20;0.10;;;24.40;99.90;;;;;;25683855;23;20261;-71
2022/07/23 02:11:19;;;;;;;0.20;0.00;;;24.40;99.90;;;;;;25658623;23;20198;-71
2022/07/23 02:21:23;;;;;;;0.20;0.10;;;24.40;99.90;;;;;;25684951;23;20178;-70
2022/07/23 02:31:29;;;;;;;0.20;0.00;;;24.00;99.90;;;;;;25684333;23;20249;-70
2022/07/23 02:41:33;;;;;;;0.20;0.10;;;24.10;99.90;;;;;;25658144;23;20193;-69
2022/07/23 02:51:38;;;;;;;0.20;0.00;;;23.90;99.90;;;;;;25657474;23;20285;-70
2022/07/23 03:01:42;;;;;;;0.20;0.00;;;24.10;99.90;;;;;;25682667;23;20828;-70
2022/07/23 03:11:47;;;;;;;0.20;0.00;;;24.20;99.90;;;;;;25683535;23;20241;-70
2022/07/23 03:21:50;;;;;;;0.20;0.00;;;24.00;99.90;;;;;;25682611;23;20250;-69
2022/07/23 03:31:56;;;;;;;0.20;0.00;;;24.00;99.90;;;;;;25687856;23;20210;-69
2022/07/23 03:42:00;;;;;;;0.20;0.00;;;24.00;99.90;;;;;;25691461;23;20166;-70
2022/07/23 03:52:05;;;;;;;0.20;0.00;;;24.10;99.90;;;;;;25690543;23;20198;-69
2022/07/23 04:02:09;;;;;;;0.20;0.00;;;24.10;99.90;;;;;;25689224;23;20198;-70
2022/07/23 04:12:15;;;;;;;0.20;0.00;;;24.30;99.90;;;;;;25689928;23;20190;-70
2022/07/23 04:22:19;;;;;;;0.20;0.00;;;24.40;99.90;;;;;;25689853;23;20197;-69
2022/07/23 04:32:24;;;;;;;0.20;0.03;;;24.60;99.90;;;;;;25688646;23;20291;-69
2022/07/23 04:42:28;;;;;;;0.20;0.10;;;24.90;99.90;;;;;;25688220;23;20266;-69
2022/07/23 04:52:33;;;;;;;0.20;0.00;;;25.20;99.90;;;;;;25687044;23;20190;-69
2022/07/23 05:02:37;;;;;;;0.20;0.00;;;25.50;99.90;;;;;;25661063;23;20230;-68
2022/07/23 05:12:42;;;;;;;0.20;0.10;;;26.00;99.90;;;;;;25685928;23;20220;-69
2022/07/23 05:22:46;;;;;;;0.20;0.00;;;26.20;99.90;;;;;;25687343;23;20190;-68
2022/07/23 05:32:51;;;;;;;0.20;0.00;;;26.30;99.90;;;;;;25684813;23;20288;-67
2022/07/23 05:42:55;;;;;;;0.20;0.00;;;26.20;99.90;;;;;;25684418;23;20248;-68
2022/07/23 05:53:00;;;;;;;0.20;0.00;;;26.30;99.90;;;;;;25683450;23;20202;-70
2022/07/23 06:03:04;;;;;;;0.20;0.00;;;26.60;99.90;;;;;;25657235;23;20198;-70
2022/07/23 06:13:09;;;;;;;0.20;0.00;;;26.70;99.90;;;;;;25631370;23;20190;-69
2022/07/23 06:23:13;;;;;;;0.20;0.03;;;26.90;99.90;;;;;;25681898;23;20194;-70
2022/07/23 06:33:18;;;;;;;0.20;0.00;;;26.80;99.90;;;;;;25681229;23;20209;-69
2022/07/23 06:43:22;;;;;;;0.20;0.00;;;26.90;99.90;;;;;;25656227;23;20185;-70
2022/07/23 06:53:27;;;;;;;0.20;0.10;;;26.80;99.90;;;;;;25655604;23;20236;-69
2022/07/23 07:03:31;;;;;;;0.20;0.00;;;26.90;99.90;;;;;;25681600;23;20249;-69
2022/07/23 07:13:37;;;;;;;0.20;0.10;;;27.20;99.90;;;;;;25681279;23;20221;-69
2022/07/23 07:23:40;;;;;;;0.20;0.00;;;27.20;99.90;;;;;;25654610;23;20186;-68
2022/07/23 07:33:46;;;;;;;0.20;0.10;;;27.30;99.90;;;;;;25654963;23;20364;-69
2022/07/23 07:43:49;;;;;;;0.20;0.10;;;27.50;99.90;;;;;;25679125;23;20269;-69
2022/07/23 07:53:55;;;;;;;0.20;0.00;;;27.40;99.90;;;;;;25653808;23;20214;-69
2022/07/23 08:03:59;;;;;;;0.20;0.00;;;27.60;99.90;;;;;;25678844;23;20198;-69
2022/07/23 08:14:04;;;;;;;0.20;0.00;;;27.70;99.90;;;;;;25680376;23;20186;-68
2022/07/23 08:24:08;;;;;;;0.20;0.00;;;27.90;99.90;;;;;;25660703;23;20167;-69
2022/07/23 08:34:14;;;;;;;0.20;0.00;;;27.90;99.90;;;;;;25685552;23;20249;-68
2022/07/23 08:44:18;;;;;;;0.20;0.00;;;28.10;99.90;;;;;;25685589;23;20188;-68
2022/07/23 08:54:23;;;;;;;0.20;0.00;;;28.20;99.90;;;;;;25658932;23;20270;-68
2022/07/23 09:04:27;;;;;;;0.20;0.00;;;28.00;99.90;;;;;;25657636;23;20294;-69
2022/07/23 09:14:40;;;;;;;0.20;0.00;;;28.20;99.90;;;;;;25683019;23;20237;-70
2022/07/23 09:25:04;;;;;;;0.20;0.00;;;28.30;99.90;;;;;;25684294;23;20170;-70
2022/07/23 09:35:09;;;;;;;0.20;0.00;;;28.60;99.90;;;;;;25682950;23;20201;-68
2022/07/23 09:45:13;;;;;;;0.20;0.00;;;28.60;99.90;;;;;;25681446;23;20230;-70
2022/07/23 09:55:19;;;;;;;0.20;0.00;;;28.80;99.90;;;;;;25680907;23;20253;-69
2022/07/23 10:05:25;;;;;;;0.20;0.00;;;28.70;99.90;;;;;;25652788;23;20261;-70
2022/07/23 10:15:30;;;;;;;0.20;0.00;;;29.00;99.90;;;;;;25680483;23;20189;-69
2022/07/23 10:25:42;;;;;;;0.20;0.00;;;28.90;99.90;;;;;;25679390;23;20201;-69
2022/07/23 10:35:57;;;;;;;0.20;0.00;;;29.40;99.90;;;;;;25651976;23;20200;-71
2022/07/23 10:46:22;;;;;;;0.20;0.00;;;29.80;99.90;;;;;;25653618;23;20243;-72
2022/07/23 10:57:08;;;;;;;0.20;0.03;;;29.20;99.90;;;;;;25626530;23;20212;-70
2022/07/23 11:07:14;;;;;;;0.20;0.10;;;29.90;99.90;;;;;;25669362;23;20205;-71
2022/07/23 11:17:24;;;;;;;0.20;0.00;;;29.90;99.90;;;;;;25678205;23;20186;-69
2022/07/23 11:27:40;;;;;;;0.20;0.00;;;31.00;99.90;;;;;;25678901;23;20182;-69
2022/07/23 11:37:46;;;;;;;0.20;0.00;;;31.10;99.90;;;;;;25678178;23;20181;-69
2022/07/23 11:47:55;;;;;;;0.20;0.00;;;31.50;99.90;;;;;;25653555;23;20186;-67
2022/07/23 11:58:00;;;;;;;0.55;0.45;;;32.30;99.90;;;;;;25660015;23;20186;-69
2022/07/23 12:08:06;;;;;;;0.20;0.00;;;31.50;99.90;;;;;;25660717;23;20204;-67
2022/07/23 12:18:15;;;;;;;0.20;0.00;;;32.30;99.90;;;;;;25686254;23;20274;-68
2022/07/23 12:28:22;;;;;;;0.20;0.00;;;33.20;99.90;;;;;;25660919;23;20234;-68
2022/07/23 12:38:38;;;;;;;0.20;0.00;;;33.90;99.90;;;;;;25684789;23;20265;-68
2022/07/23 12:48:53;;;;;;;0.20;0.00;;;34.30;99.90;;;;;;25686030;23;20218;-68
2022/07/23 12:59:01;;;;;;;0.20;0.00;;;33.10;99.90;;;;;;25684056;23;20198;-69
2022/07/23 13:09:09;;;;;;;0.20;0.00;;;32.80;99.90;;;;;;25682723;23;20194;-69
2022/07/23 13:19:14;;;;;;;0.20;0.00;;;34.60;99.90;;;;;;25682112;23;20246;-69
2022/07/23 13:29:23;;;;;;;0.20;0.00;;;34.60;99.90;;;;;;25680387;23;20154;-70
2022/07/23 13:39:28;;;;;;;0.20;0.00;;;34.80;99.90;;;;;;25652065;23;20194;-69
2022/07/23 13:49:42;;;;;;;0.20;0.00;;;34.10;99.90;;;;;;25680717;23;20170;-69
2022/07/23 13:59:45;;;;;;;0.20;0.00;;;34.40;99.90;;;;;;25679560;23;20269;-70
2022/07/23 14:09:51;;;;;;;0.20;0.00;;;34.80;99.90;;;;;;25680510;23;20230;-70
2022/07/23 14:19:56;;;;;;;0.20;0.00;;;34.80;99.90;;;;;;25679204;23;20182;-69
2022/07/23 14:30:01;;;;;;;0.20;0.00;;;35.10;99.90;;;;;;25679013;23;20280;-70
2022/07/23 14:40:08;;;;;;;0.20;0.00;;;35.30;99.90;;;;;;25653185;23;20194;-69
2022/07/23 14:50:13;;;;;;;0.20;0.00;;;35.50;99.90;;;;;;25678587;23;20239;-69
2022/07/23 15:00:17;;;;;;;0.20;0.00;;;35.10;99.90;;;;;;25676542;23;20233;-70
2022/07/23 15:10:28;;;;;;;0.20;0.00;;;35.00;99.90;;;;;;25678243;23;20163;-68
2022/07/23 15:20:33;;;;;;;0.20;0.00;;;35.40;99.90;;;;;;25650564;23;20178;-67
2022/07/23 15:30:44;;;;;;;0.20;0.00;;;34.90;99.90;;;;;;25684422;23;20178;-68
2022/07/23 15:40:48;;;;;;;0.20;0.00;;;35.30;99.90;;;;;;25667608;23;20166;-69
2022/07/23 15:50:53;;;;;;;0.20;0.00;;;35.20;99.90;;;;;;25694925;23;20264;-68
2022/07/23 16:00:57;;;;;;;0.20;0.00;;;32.10;99.90;;;;;;25689934;23;20244;-69
2022/07/23 16:11:03;;;;;;;0.20;0.00;;;31.20;99.90;;;;;;25684844;23;20189;-69
2022/07/23 16:21:07;;;;;;;0.20;0.00;;;30.60;99.90;;;;;;25691391;23;20178;-69
2022/07/23 16:31:19;;;;;;;0.20;0.00;;;30.00;99.90;;;;;;25689466;23;20196;-69
2022/07/23 16:41:23;;;;;;;0.20;0.00;;;29.80;99.90;;;;;;25687997;23;20174;-69
2022/07/23 16:51:28;;;;;;;0.20;0.00;;;29.60;99.90;;;;;;25685655;23;20193;-69
2022/07/23 17:01:32;;;;;;;0.20;0.00;;;29.10;99.90;;;;;;25681226;23;20245;-69
2022/07/23 17:11:37;;;;;;;0.20;0.00;;;29.00;99.90;;;;;;25687784;23;20337;-68
2022/07/23 17:21:41;;;;;;;0.20;0.00;;;28.80;99.90;;;;;;25689490;23;20261;-70
2022/07/23 17:31:47;;;;;;;0.20;0.00;;;28.80;99.90;;;;;;25690493;23;20197;-68
2022/07/23 17:41:51;;;;;;;0.20;0.10;;;28.80;99.90;;;;;;25690547;23;20166;-70
2022/07/23 17:51:57;;;;;;;0.20;0.00;;;28.70;99.90;;;;;;25660156;23;20282;-69
2022/07/23 18:02:01;;;;;;;0.20;0.00;;;28.60;99.90;;;;;;25684506;23;20229;-72
2022/07/23 18:12:08;;;;;;;0.20;0.00;;;28.60;99.90;;;;;;25684789;23;20190;-70
2022/07/23 18:22:12;;;;;;;0.20;0.00;;;28.50;99.90;;;;;;25682430;23;20200;-70
2022/07/23 18:32:18;;;;;;;0.20;0.00;;;28.70;99.90;;;;;;25684280;23;20205;-69
2022/07/23 18:42:22;;;;;;;0.20;0.00;;;28.50;99.90;;;;;;25650087;23;20177;-69
2022/07/23 18:52:27;;;;;;;0.20;0.00;;;28.50;99.90;;;;;;25674764;23;20271;-70
2022/07/23 19:02:31;;;;;;;0.20;0.00;;;28.60;99.90;;;;;;25648618;23;20982;-71
2022/07/23 19:12:36;;;;;;;0.20;0.00;;;28.30;99.90;;;;;;25656247;23;20189;-69
2022/07/23 19:22:40;;;;;;;0.20;0.00;;;28.30;99.90;;;;;;25685465;23;20181;-70
2022/07/23 19:32:46;;;;;;;0.20;0.00;;;28.10;99.90;;;;;;25687069;23;20232;-71
2022/07/23 19:42:50;;;;;;;0.20;0.00;;;28.10;99.90;;;;;;25689518;23;20216;-69
2022/07/23 19:52:56;;;;;;;0.20;0.00;;;28.20;99.90;;;;;;25663741;23;20194;-69
2022/07/23 20:03:00;;;;;;;0.20;0.00;;;28.00;99.90;;;;;;25663095;23;20277;-71
2022/07/23 20:13:05;;;;;;;0.20;0.00;;;27.80;99.90;;;;;;25667002;23;20205;-69
2022/07/23 20:23:09;;;;;;;0.20;0.00;;;27.70;99.90;;;;;;25670149;23;20197;-72
2022/07/23 20:33:15;;;;;;;0.20;0.00;;;27.70;99.90;;;;;;25697736;23;20205;-70
2022/07/23 20:43:19;;;;;;;0.20;0.00;;;27.70;99.90;;;;;;25647391;23;20181;-69
2022/07/23 20:53:24;;;;;;;0.20;0.00;;;27.80;99.90;;;;;;25696682;23;20217;-69
2022/07/23 21:03:28;;;;;;;0.20;0.00;;;27.70;99.90;;;;;;25694989;23;20249;-70
2022/07/23 21:13:35;;;;;;;0.20;0.00;;;27.70;99.90;;;;;;25694670;23;20188;-70
2022/07/23 21:23:42;;;;;;;0.20;0.00;;;27.60;99.90;;;;;;25670266;23;20279;-70
2022/07/23 21:33:47;;;;;;;0.20;0.00;;;27.60;99.90;;;;;;25696313;23;20193;-70
2022/07/23 21:43:51;;;;;;;0.20;0.00;;;27.60;99.90;;;;;;25694892;23;20166;-69
2022/07/23 21:53:56;;;;;;;0.20;0.00;;;27.30;99.90;;;;;;25695669;23;20186;-69
2022/07/23 22:04:04;;;;;;;0.20;0.00;;;27.30;99.90;;;;;;25695606;23;20237;-71
2022/07/23 22:14:09;;;;;;;0.20;0.00;;;27.30;99.90;;;;;;25696395;23;20186;-72
2022/07/23 22:24:14;;;;;;;0.20;0.00;;;26.90;99.90;;;;;;25695965;23;20213;-70
2022/07/23 22:34:19;;;;;;;0.20;0.00;;;26.70;99.90;;;;;;25696165;23;20186;-69
2022/07/23 22:44:23;;;;;;;0.20;0.00;;;26.60;99.90;;;;;;25668503;23;20859;-70
2022/07/23 22:54:28;;;;;;;0.20;0.00;;;26.50;99.90;;;;;;25694218;23;20190;-70
2022/07/23 23:04:32;;;;;;;0.20;0.00;;;26.40;99.90;;;;;;25692761;23;20229;-71
2022/07/23 23:14:37;;;;;;;0.20;0.00;;;26.30;99.90;;;;;;25694539;23;20190;-71
2022/07/23 23:24:41;;;;;;;0.20;0.00;;;26.30;99.90;;;;;;25669182;23;20174;-71
2022/07/23 23:34:47;;;;;;;0.20;0.00;;;26.20;99.90;;;;;;25693749;23;20270;-71
2022/07/23 23:44:51;;;;;;;0.20;0.00;;;25.90;99.90;;;;;;25670908;23;20186;-71
2022/07/23 23:54:56;;;;;;;0.20;0.08;;;25.70;99.90;;;;;;25676087;23;20198;-71
